Time;durP1;ratioP1;P1;durP2;ratioP2;P2;SDS_P1;SDS_P2;PMS_P1;PMS_P2;Temp;Humidity;BMP_temperature;BMP_pressure;BME280_temperature;BME280_humidity;BME280_pressure;Samples;Min_cycle;Max_cycle;Signal;HPM_P1;HPM_P2
2023/05/14 00:00:22;;;;;;;13.88;7.75;;;;;;;;;;5004241;28;20018;-67
2023/05/14 00:02:47;;;;;;;11.73;7.65;;;;;;;;;;5003607;28;20053;-68
2023/05/14 00:05:13;;;;;;;11.57;7.70;;;;;;;;;;5003172;28;20029;-67
2023/05/14 00:07:38;;;;;;;11.20;7.63;;;;;;;;;;5007029;28;20102;-65
2023/05/14 00:10:03;;;;;;;12.30;7.60;;;;;;;;;;5006019;28;20506;-68
2023/05/14 00:12:29;;;;;;;12.87;8.47;;;;;;;;;;5008050;28;20396;-67
2023/05/14 00:14:54;;;;;;;10.88;7.20;;;;;;;;;;5007070;28;20449;-67
2023/05/14 00:17:19;;;;;;;12.15;7.78;;;;;;;;;;5007880;28;20029;-67
2023/05/14 00:19:44;;;;;;;12.73;7.60;;;;;;;;;;5006177;28;20370;-66
2023/05/14 00:22:10;;;;;;;12.47;7.67;;;;;;;;;;5008217;28;20124;-67
2023/05/14 00:24:35;;;;;;;10.67;7.63;;;;;;;;;;4999751;28;20049;-67
2023/05/14 00:27:00;;;;;;;11.93;7.10;;;;;;;;;;5002110;28;20432;-67
2023/05/14 00:29:25;;;;;;;12.67;7.80;;;;;;;;;;5006498;28;20448;-66
2023/05/14 00:31:50;;;;;;;12.18;8.20;;;;;;;;;;5005385;28;20018;-67
2023/05/14 00:34:16;;;;;;;12.32;7.55;;;;;;;;;;5009039;28;20044;-67
2023/05/14 00:36:41;;;;;;;12.63;7.35;;;;;;;;;;5008231;28;20033;-66
2023/05/14 00:39:06;;;;;;;13.30;8.10;;;;;;;;;;5008493;28;20026;-64
2023/05/14 00:41:31;;;;;;;11.88;7.78;;;;;;;;;;5005674;28;20021;-67
2023/05/14 00:43:56;;;;;;;11.67;7.80;;;;;;;;;;5007850;28;20022;-67
2023/05/14 00:46:21;;;;;;;10.95;7.18;;;;;;;;;;5009354;28;20037;-67
2023/05/14 00:48:47;;;;;;;14.13;9.20;;;;;;;;;;5009672;28;20022;-65
2023/05/14 00:51:12;;;;;;;11.77;7.83;;;;;;;;;;5008308;28;20537;-66
2023/05/14 00:53:37;;;;;;;12.32;8.93;;;;;;;;;;5012167;28;20136;-68
2023/05/14 00:56:03;;;;;;;13.15;8.23;;;;;;;;;;5009720;28;20036;-66
2023/05/14 00:58:28;;;;;;;12.33;8.23;;;;;;;;;;5007668;28;20065;-69
2023/05/14 01:00:53;;;;;;;13.13;8.73;;;;;;;;;;5010447;28;20018;-66
2023/05/14 01:03:18;;;;;;;11.70;8.03;;;;;;;;;;5009153;28;20045;-67
2023/05/14 01:05:52;;;;;;;13.48;8.90;;;;;;;;;;5010426;28;20022;-67
2023/05/14 01:08:29;;;;;;;12.95;8.00;;;;;;;;;;5011173;28;20018;-66
2023/05/14 01:11:10;;;;;;;12.95;7.97;;;;;;;;;;5006654;28;20429;-65
2023/05/14 01:13:41;;;;;;;13.25;7.97;;;;;;;;;;5009746;28;20564;-66
2023/05/14 01:16:11;;;;;;;11.75;7.57;;;;;;;;;;5008001;28;20516;-64
2023/05/14 01:18:36;;;;;;;14.50;8.27;;;;;;;;;;5010238;28;20034;-67
2023/05/14 01:21:02;;;;;;;11.95;8.32;;;;;;;;;;5003431;28;20535;-64
2023/05/14 01:23:27;;;;;;;11.65;8.02;;;;;;;;;;5012156;28;20044;-66
2023/05/14 01:25:53;;;;;;;14.55;8.55;;;;;;;;;;5010551;28;20029;-66
2023/05/14 01:28:19;;;;;;;14.32;8.13;;;;;;;;;;5009896;28;20145;-65
2023/05/14 01:30:47;;;;;;;11.52;7.30;;;;;;;;;;5010319;28;20460;-66
2023/05/14 01:33:13;;;;;;;11.15;7.50;;;;;;;;;;5011278;28;20402;-66
2023/05/14 01:35:38;;;;;;;12.30;7.90;;;;;;;;;;5005333;28;20489;-66
2023/05/14 01:38:05;;;;;;;11.88;7.70;;;;;;;;;;5012830;28;20109;-67
2023/05/14 01:40:31;;;;;;;11.85;7.50;;;;;;;;;;5006398;28;20133;-67
2023/05/14 01:42:56;;;;;;;10.85;7.15;;;;;;;;;;5011401;28;20485;-67
2023/05/14 01:45:22;;;;;;;12.30;7.30;;;;;;;;;;5007086;28;20071;-67
2023/05/14 01:47:47;;;;;;;11.57;7.63;;;;;;;;;;5006229;28;20604;-67
2023/05/14 01:50:13;;;;;;;13.43;7.83;;;;;;;;;;5008876;28;20363;-67
2023/05/14 01:52:38;;;;;;;11.48;7.57;;;;;;;;;;5007250;28;20124;-67
2023/05/14 01:55:04;;;;;;;12.77;8.02;;;;;;;;;;5011255;28;20025;-67
2023/05/14 01:57:29;;;;;;;10.82;7.53;;;;;;;;;;5001399;28;20026;-66
2023/05/14 01:59:54;;;;;;;11.90;7.87;;;;;;;;;;5011848;28;20485;-66
2023/05/14 02:02:19;;;;;;;11.50;8.13;;;;;;;;;;5009231;28;20025;-67
2023/05/14 02:04:44;;;;;;;10.87;7.37;;;;;;;;;;5002723;28;20104;-65
2023/05/14 02:07:09;;;;;;;14.07;8.63;;;;;;;;;;5010114;28;20033;-67
2023/05/14 02:09:35;;;;;;;11.93;8.20;;;;;;;;;;5007267;28;20094;-67
2023/05/14 02:12:00;;;;;;;11.50;7.70;;;;;;;;;;5009829;28;20121;-67
2023/05/14 02:14:25;;;;;;;12.53;8.27;;;;;;;;;;4995292;28;20023;-67
2023/05/14 02:16:50;;;;;;;12.10;7.20;;;;;;;;;;5011095;28;20026;-67
2023/05/14 02:19:15;;;;;;;11.02;7.25;;;;;;;;;;5010871;28;20025;-67
2023/05/14 02:21:40;;;;;;;13.18;7.32;;;;;;;;;;5004042;28;20025;-67
2023/05/14 02:24:06;;;;;;;12.63;7.47;;;;;;;;;;5007154;28;20045;-66
2023/05/14 02:26:31;;;;;;;10.20;7.23;;;;;;;;;;5004225;28;20038;-66
2023/05/14 02:28:56;;;;;;;11.00;7.47;;;;;;;;;;5007451;28;20020;-66
2023/05/14 02:31:21;;;;;;;14.23;8.88;;;;;;;;;;5006048;28;20024;-66
2023/05/14 02:33:46;;;;;;;11.13;7.50;;;;;;;;;;5000765;28;20038;-66
2023/05/14 02:36:11;;;;;;;11.43;7.87;;;;;;;;;;5003962;28;20049;-68
2023/05/14 02:38:36;;;;;;;13.10;7.87;;;;;;;;;;5003530;28;20554;-66
2023/05/14 02:41:02;;;;;;;13.67;7.13;;;;;;;;;;5005560;28;20021;-67
2023/05/14 02:43:27;;;;;;;12.97;7.67;;;;;;;;;;5001067;28;20036;-66
2023/05/14 02:45:52;;;;;;;11.57;7.70;;;;;;;;;;5007979;28;20083;-67
2023/05/14 02:48:17;;;;;;;11.00;7.32;;;;;;;;;;5004481;28;20030;-65
2023/05/14 02:50:42;;;;;;;11.53;7.80;;;;;;;;;;5004673;28;20033;-67
2023/05/14 02:53:07;;;;;;;11.03;7.73;;;;;;;;;;5003162;28;20041;-65
2023/05/14 02:55:33;;;;;;;12.67;7.13;;;;;;;;;;5004624;28;20027;-67
2023/05/14 02:57:58;;;;;;;12.13;7.87;;;;;;;;;;5005075;28;20026;-67
2023/05/14 03:00:23;;;;;;;12.10;7.43;;;;;;;;;;5000069;28;20140;-67
2023/05/14 03:02:48;;;;;;;10.98;7.07;;;;;;;;;;5007664;28;20014;-67
2023/05/14 03:05:13;;;;;;;11.75;7.47;;;;;;;;;;5007130;28;20033;-66
2023/05/14 03:07:38;;;;;;;11.10;7.43;;;;;;;;;;5017843;28;20030;-67
2023/05/14 03:10:04;;;;;;;12.23;7.20;;;;;;;;;;5016828;28;20025;-67
2023/05/14 03:12:29;;;;;;;11.45;7.45;;;;;;;;;;5000700;28;20060;-66
2023/05/14 03:14:55;;;;;;;11.77;7.50;;;;;;;;;;4999002;28;20033;-66
2023/05/14 03:17:20;;;;;;;10.48;7.30;;;;;;;;;;5000533;28;20408;-66
2023/05/14 03:19:45;;;;;;;10.88;7.43;;;;;;;;;;5008408;28;20018;-68
2023/05/14 03:22:10;;;;;;;11.73;7.35;;;;;;;;;;5005901;28;20030;-66
2023/05/14 03:24:37;;;;;;;16.58;7.82;;;;;;;;;;5007674;28;21632;-68
2023/05/14 03:27:02;;;;;;;11.40;7.22;;;;;;;;;;5002869;28;20049;-68
2023/05/14 03:29:28;;;;;;;10.60;6.80;;;;;;;;;;4994733;28;20022;-67
2023/05/14 03:31:53;;;;;;;11.67;6.87;;;;;;;;;;5000573;28;20033;-68
2023/05/14 03:34:18;;;;;;;10.82;6.65;;;;;;;;;;4999640;28;20492;-67
2023/05/14 03:36:43;;;;;;;11.03;6.97;;;;;;;;;;5001855;28;20112;-67
2023/05/14 03:39:08;;;;;;;9.65;6.55;;;;;;;;;;5008041;28;20563;-67
2023/05/14 03:41:34;;;;;;;11.23;7.20;;;;;;;;;;5009310;28;20478;-67
2023/05/14 03:44:00;;;;;;;10.63;6.80;;;;;;;;;;5004307;28;20041;-67
2023/05/14 03:46:25;;;;;;;10.87;7.07;;;;;;;;;;5007200;28;20061;-67
2023/05/14 03:48:50;;;;;;;11.43;7.10;;;;;;;;;;5003110;28;20022;-67
2023/05/14 03:51:15;;;;;;;11.45;6.95;;;;;;;;;;5007116;28;20413;-67
2023/05/14 03:53:40;;;;;;;10.15;6.32;;;;;;;;;;5005110;28;20068;-65
2023/05/14 03:56:05;;;;;;;10.05;6.70;;;;;;;;;;5007368;28;20045;-67
2023/05/14 03:58:31;;;;;;;9.00;6.03;;;;;;;;;;5005916;28;20397;-67
2023/05/14 04:00:56;;;;;;;9.85;5.88;;;;;;;;;;5005366;28;20026;-67
2023/05/14 04:03:21;;;;;;;11.05;7.00;;;;;;;;;;5007172;28;20022;-67
2023/05/14 04:05:46;;;;;;;11.07;6.93;;;;;;;;;;5008107;28;20057;-68
2023/05/14 04:08:11;;;;;;;10.38;6.80;;;;;;;;;;5008897;28;20076;-67
2023/05/14 04:10:36;;;;;;;10.90;6.27;;;;;;;;;;5005570;28;20168;-65
2023/05/14 04:13:01;;;;;;;10.50;6.32;;;;;;;;;;5011200;28;20021;-67
2023/05/14 04:15:27;;;;;;;10.57;6.78;;;;;;;;;;5005286;28;20116;-66
2023/05/14 04:17:52;;;;;;;10.87;6.77;;;;;;;;;;5003674;28;20029;-68
2023/05/14 04:20:17;;;;;;;10.52;6.68;;;;;;;;;;5009790;28;20022;-67
2023/05/14 04:22:42;;;;;;;9.17;6.43;;;;;;;;;;5012936;28;20050;-67
2023/05/14 04:25:07;;;;;;;9.83;6.07;;;;;;;;;;5012506;28;20454;-68
2023/05/14 04:27:33;;;;;;;10.63;6.03;;;;;;;;;;5010969;28;20034;-67
2023/05/14 04:29:58;;;;;;;10.05;6.45;;;;;;;;;;5010427;28;20029;-67
2023/05/14 04:32:23;;;;;;;9.53;6.80;;;;;;;;;;5008150;28;20030;-67
2023/05/14 04:34:48;;;;;;;9.70;6.38;;;;;;;;;;5010159;28;20032;-67
2023/05/14 04:37:14;;;;;;;9.05;5.93;;;;;;;;;;5012260;28;20486;-67
2023/05/14 04:39:39;;;;;;;11.13;5.97;;;;;;;;;;5007961;28;20042;-68
2023/05/14 04:42:05;;;;;;;9.85;6.50;;;;;;;;;;5011317;28;20018;-68
2023/05/14 04:44:30;;;;;;;8.88;5.90;;;;;;;;;;5011456;28;20033;-67
2023/05/14 04:46:56;;;;;;;9.77;6.07;;;;;;;;;;5012012;28;20038;-67
2023/05/14 04:49:21;;;;;;;10.25;6.05;;;;;;;;;;5008773;28;20494;-67
2023/05/14 04:51:47;;;;;;;8.60;5.80;;;;;;;;;;5010391;28;20029;-68
2023/05/14 04:54:12;;;;;;;11.23;6.03;;;;;;;;;;5012503;28;20026;-67
2023/05/14 04:56:37;;;;;;;9.50;5.57;;;;;;;;;;5011951;28;20009;-67
2023/05/14 04:59:02;;;;;;;10.63;6.50;;;;;;;;;;5006486;28;20460;-68
2023/05/14 05:01:27;;;;;;;8.95;6.22;;;;;;;;;;5005654;28;20916;-70
2023/05/14 05:03:53;;;;;;;9.67;5.47;;;;;;;;;;5005895;28;20623;-68
2023/05/14 05:06:18;;;;;;;7.90;5.50;;;;;;;;;;5010483;28;20038;-68
2023/05/14 05:08:43;;;;;;;9.80;5.43;;;;;;;;;;5005685;28;20406;-67
2023/05/14 05:11:08;;;;;;;8.73;5.73;;;;;;;;;;5006334;28;20030;-67
2023/05/14 05:13:33;;;;;;;8.48;5.50;;;;;;;;;;5008341;28;20386;-67
2023/05/14 05:15:58;;;;;;;9.97;5.37;;;;;;;;;;5008927;28;20388;-67
2023/05/14 05:18:23;;;;;;;7.53;4.90;;;;;;;;;;5006028;28;20022;-65
2023/05/14 05:20:49;;;;;;;8.30;5.05;;;;;;;;;;5001752;28;20025;-65
2023/05/14 05:23:14;;;;;;;8.77;5.47;;;;;;;;;;5011047;28;20103;-67
2023/05/14 05:25:39;;;;;;;8.77;5.45;;;;;;;;;;5009430;28;20027;-67
2023/05/14 05:28:04;;;;;;;8.25;4.57;;;;;;;;;;5011453;28;20113;-66
2023/05/14 05:30:29;;;;;;;9.43;5.90;;;;;;;;;;5007243;28;20021;-67
2023/05/14 05:32:56;;;;;;;8.57;5.07;;;;;;;;;;5006043;28;20036;-66
2023/05/14 05:35:21;;;;;;;9.35;5.40;;;;;;;;;;5009370;28;20032;-67
2023/05/14 05:37:46;;;;;;;7.40;5.03;;;;;;;;;;5011081;28;20093;-65
2023/05/14 05:40:13;;;;;;;9.17;5.53;;;;;;;;;;5007466;28;20084;-66
2023/05/14 05:42:38;;;;;;;7.68;4.82;;;;;;;;;;5008026;28;20022;-66
2023/05/14 05:45:03;;;;;;;12.05;5.55;;;;;;;;;;5008378;28;20022;-66
2023/05/14 05:47:29;;;;;;;8.60;5.57;;;;;;;;;;5009615;28;20034;-65
2023/05/14 05:49:54;;;;;;;8.00;5.00;;;;;;;;;;5004206;28;20026;-65
2023/05/14 05:52:19;;;;;;;9.60;5.20;;;;;;;;;;5007725;28;20061;-67
2023/05/14 05:54:44;;;;;;;8.02;4.90;;;;;;;;;;5011438;28;20386;-67
2023/05/14 05:57:09;;;;;;;9.13;5.33;;;;;;;;;;5008362;28;20028;-67
2023/05/14 05:59:35;;;;;;;8.47;5.13;;;;;;;;;;5006168;28;20468;-65
2023/05/14 06:02:00;;;;;;;9.23;5.40;;;;;;;;;;5005884;28;20021;-67
2023/05/14 06:04:25;;;;;;;8.90;5.60;;;;;;;;;;5007933;28;20029;-67
2023/05/14 06:06:50;;;;;;;7.90;4.53;;;;;;;;;;5002874;28;20386;-67
2023/05/14 06:09:15;;;;;;;9.30;5.13;;;;;;;;;;5009438;28;20067;-67
2023/05/14 06:11:40;;;;;;;8.83;5.17;;;;;;;;;;5009794;28;20175;-67
2023/05/14 06:14:06;;;;;;;8.10;5.35;;;;;;;;;;5010963;28;20018;-67
2023/05/14 06:16:31;;;;;;;7.65;4.93;;;;;;;;;;5000683;28;20148;-65
2023/05/14 06:18:56;;;;;;;8.52;4.78;;;;;;;;;;5009709;28;20018;-66
2023/05/14 06:21:21;;;;;;;8.97;4.83;;;;;;;;;;5008261;28;20021;-65
2023/05/14 06:23:47;;;;;;;10.37;5.10;;;;;;;;;;5008368;28;20021;-64
2023/05/14 06:26:12;;;;;;;7.73;5.23;;;;;;;;;;5007504;28;20038;-66
2023/05/14 06:28:37;;;;;;;9.83;4.97;;;;;;;;;;5010730;28;20021;-67
2023/05/14 06:31:02;;;;;;;7.67;4.57;;;;;;;;;;5010078;28;20048;-67
2023/05/14 06:33:30;;;;;;;8.43;5.27;;;;;;;;;;5007358;28;20144;-66
2023/05/14 06:36:03;;;;;;;8.13;4.88;;;;;;;;;;5010275;28;20025;-64
2023/05/14 06:38:28;;;;;;;7.75;5.05;;;;;;;;;;5009915;28;20017;-67
2023/05/14 06:40:53;;;;;;;8.40;5.30;;;;;;;;;;5010467;28;20609;-65
2023/05/14 06:43:19;;;;;;;9.53;5.40;;;;;;;;;;5008387;28;20407;-67
2023/05/14 06:45:47;;;;;;;8.57;5.35;;;;;;;;;;5009070;28;20238;-67
2023/05/14 06:48:12;;;;;;;10.23;4.95;;;;;;;;;;5009913;28;20486;-67
2023/05/14 06:50:37;;;;;;;9.50;5.70;;;;;;;;;;5008338;28;20022;-65
2023/05/14 06:53:02;;;;;;;8.82;4.88;;;;;;;;;;5011486;28;20377;-67
2023/05/14 06:55:27;;;;;;;9.63;5.13;;;;;;;;;;5011182;28;20029;-65
2023/05/14 06:57:52;;;;;;;6.37;4.10;;;;;;;;;;5010801;28;20113;-66
2023/05/14 07:00:18;;;;;;;6.97;4.32;;;;;;;;;;5011066;28;20026;-67
2023/05/14 07:02:43;;;;;;;7.88;4.40;;;;;;;;;;5013398;28;20018;-66
2023/05/14 07:05:09;;;;;;;9.73;4.43;;;;;;;;;;5012679;28;20022;-65
2023/05/14 07:07:34;;;;;;;11.75;5.50;;;;;;;;;;5012526;28;20022;-66
2023/05/14 07:09:59;;;;;;;7.07;4.07;;;;;;;;;;5012446;28;20010;-65
2023/05/14 07:12:24;;;;;;;8.63;4.25;;;;;;;;;;5011032;28;20018;-64
2023/05/14 07:14:50;;;;;;;12.23;5.83;;;;;;;;;;5010566;28;20017;-66
2023/05/14 07:17:15;;;;;;;14.20;7.38;;;;;;;;;;5015016;28;20024;-66
2023/05/14 07:19:40;;;;;;;8.40;4.70;;;;;;;;;;5013265;28;20018;-66
2023/05/14 07:22:05;;;;;;;12.55;5.80;;;;;;;;;;5010934;28;20028;-66
2023/05/14 07:24:30;;;;;;;10.48;5.60;;;;;;;;;;5011182;28;20481;-65
2023/05/14 07:26:56;;;;;;;10.00;6.00;;;;;;;;;;5013350;28;20022;-66
2023/05/14 07:29:21;;;;;;;8.18;4.90;;;;;;;;;;5011036;28;20056;-66
2023/05/14 07:31:46;;;;;;;9.43;4.77;;;;;;;;;;5006548;28;20048;-67
2023/05/14 07:34:11;;;;;;;7.50;4.37;;;;;;;;;;5010753;28;20383;-66
2023/05/14 07:36:37;;;;;;;7.90;4.20;;;;;;;;;;5010951;28;20045;-66
2023/05/14 07:39:02;;;;;;;7.70;4.97;;;;;;;;;;5010802;28;20018;-66
2023/05/14 07:41:27;;;;;;;8.57;4.20;;;;;;;;;;5011313;28;20033;-67
2023/05/14 07:43:52;;;;;;;7.10;4.32;;;;;;;;;;5016467;28;20157;-66
2023/05/14 07:46:18;;;;;;;7.20;4.57;;;;;;;;;;5017000;28;20432;-67
2023/05/14 07:48:43;;;;;;;8.23;4.50;;;;;;;;;;5011229;28;20021;-65
2023/05/14 07:51:08;;;;;;;7.43;4.30;;;;;;;;;;5010891;28;20014;-66
2023/05/14 07:53:33;;;;;;;10.63;5.33;;;;;;;;;;5010831;28;20014;-64
2023/05/14 07:55:58;;;;;;;7.35;3.88;;;;;;;;;;5014462;28;20034;-65
2023/05/14 07:58:25;;;;;;;6.38;4.00;;;;;;;;;;5013456;28;20029;-66
2023/05/14 08:00:50;;;;;;;6.68;4.20;;;;;;;;;;5014384;28;20446;-67
2023/05/14 08:03:15;;;;;;;7.80;4.50;;;;;;;;;;5013543;28;20093;-67
2023/05/14 08:05:41;;;;;;;6.63;3.90;;;;;;;;;;5014738;28;20022;-67
2023/05/14 08:08:06;;;;;;;7.72;4.13;;;;;;;;;;5013743;28;20108;-68
2023/05/14 08:10:31;;;;;;;7.38;4.03;;;;;;;;;;5013969;28;20057;-67
2023/05/14 08:12:56;;;;;;;8.05;4.20;;;;;;;;;;5013536;28;20591;-66
2023/05/14 08:15:21;;;;;;;7.28;4.03;;;;;;;;;;5014029;28;20036;-66
2023/05/14 08:17:47;;;;;;;7.50;4.32;;;;;;;;;;5011529;28;20030;-67
2023/05/14 08:20:12;;;;;;;9.60;3.70;;;;;;;;;;5013749;28;20010;-65
2023/05/14 08:22:37;;;;;;;7.37;4.20;;;;;;;;;;5013229;28;20022;-67
2023/05/14 08:25:02;;;;;;;6.87;3.80;;;;;;;;;;5012419;28;20014;-68
2023/05/14 08:27:28;;;;;;;6.85;3.80;;;;;;;;;;5007730;28;20061;-65
2023/05/14 08:29:53;;;;;;;9.07;4.18;;;;;;;;;;5014092;28;20026;-67
2023/05/14 08:32:18;;;;;;;10.02;4.50;;;;;;;;;;5013299;28;20113;-68
2023/05/14 08:34:43;;;;;;;6.25;3.75;;;;;;;;;;5015421;28;20100;-67
2023/05/14 08:37:08;;;;;;;8.70;4.00;;;;;;;;;;5014123;28;20029;-66
2023/05/14 08:39:33;;;;;;;6.55;3.75;;;;;;;;;;5014221;28;20033;-68
2023/05/14 08:41:59;;;;;;;7.57;4.27;;;;;;;;;;5013371;28;20068;-67
2023/05/14 08:44:31;;;;;;;6.93;4.32;;;;;;;;;;5013660;28;20101;-68
2023/05/14 08:46:57;;;;;;;8.80;4.25;;;;;;;;;;5013860;28;20033;-67
2023/05/14 08:49:39;;;;;;;8.15;4.38;;;;;;;;;;5012741;28;20418;-67
2023/05/14 08:52:05;;;;;;;8.05;4.47;;;;;;;;;;5013339;28;20029;-66
2023/05/14 08:54:31;;;;;;;6.13;4.28;;;;;;;;;;5014212;28;20373;-64
2023/05/14 08:56:57;;;;;;;6.90;4.32;;;;;;;;;;5013322;28;20084;-67
2023/05/14 08:59:22;;;;;;;;;;;;;;;;;;5014250;28;20018;-66
2023/05/14 09:01:50;;;;;;;7.43;3.67;;;;;;;;;;5013029;28;19905;-67
2023/05/14 09:04:18;;;;;;;6.20;3.50;;;;;;;;;;5013495;28;20021;-66
2023/05/14 09:06:45;;;;;;;7.53;3.53;;;;;;;;;;5013304;28;20061;-68
2023/05/14 09:09:10;;;;;;;6.88;3.00;;;;;;;;;;5013171;28;20033;-67
2023/05/14 09:11:42;;;;;;;5.77;2.90;;;;;;;;;;5012744;28;20030;-67
2023/05/14 09:14:07;;;;;;;5.47;2.88;;;;;;;;;;5013252;28;20024;-67
2023/05/14 09:16:35;;;;;;;6.72;3.00;;;;;;;;;;5013587;28;20022;-67
2023/05/14 09:19:00;;;;;;;6.43;2.92;;;;;;;;;;5013270;28;20080;-67
2023/05/14 09:21:26;;;;;;;5.68;2.95;;;;;;;;;;5012678;28;20473;-66
2023/05/14 09:23:52;;;;;;;6.05;3.22;;;;;;;;;;5013424;28;20605;-68
2023/05/14 09:26:17;;;;;;;7.68;3.70;;;;;;;;;;5013594;28;20030;-67
2023/05/14 09:28:43;;;;;;;6.47;3.50;;;;;;;;;;5008668;28;20018;-66
2023/05/14 09:31:08;;;;;;;6.10;3.40;;;;;;;;;;5007549;28;20064;-66
2023/05/14 09:33:33;;;;;;;6.63;4.00;;;;;;;;;;5013107;28;20029;-66
2023/05/14 09:36:02;;;;;;;5.50;3.57;;;;;;;;;;5013105;28;20037;-65
2023/05/14 09:38:30;;;;;;;6.13;3.30;;;;;;;;;;5013111;28;20030;-66
2023/05/14 09:40:56;;;;;;;10.88;3.63;;;;;;;;;;5012353;28;20018;-66
2023/05/14 09:43:24;;;;;;;5.70;3.17;;;;;;;;;;5013412;28;20053;-66
2023/05/14 09:45:50;;;;;;;5.30;3.22;;;;;;;;;;5013580;28;20499;-66
2023/05/14 09:48:15;;;;;;;5.70;3.40;;;;;;;;;;5012876;28;20022;-64
2023/05/14 09:50:40;;;;;;;8.35;3.60;;;;;;;;;;5014962;28;20100;-66
2023/05/14 09:53:06;;;;;;;6.40;3.75;;;;;;;;;;5013329;28;20034;-66
2023/05/14 09:55:32;;;;;;;6.68;3.58;;;;;;;;;;5011498;28;20021;-66
2023/05/14 09:57:57;;;;;;;6.10;3.67;;;;;;;;;;5013213;28;20486;-65
2023/05/14 10:00:22;;;;;;;6.68;3.72;;;;;;;;;;5012366;28;20047;-65
2023/05/14 10:02:48;;;;;;;7.70;3.70;;;;;;;;;;5012485;28;20493;-66
2023/05/14 10:05:14;;;;;;;;;;;;;;;;;;5013070;28;20022;-66
2023/05/14 10:07:41;;;;;;;5.75;3.25;;;;;;;;;;5012250;28;19910;-65
2023/05/14 10:10:09;;;;;;;6.57;3.58;;;;;;;;;;5012597;28;20029;-67
2023/05/14 10:12:37;;;;;;;7.05;3.28;;;;;;;;;;5011863;28;20092;-66
2023/05/14 10:15:05;;;;;;;6.95;3.55;;;;;;;;;;5012591;28;20018;-66
2023/05/14 10:17:32;;;;;;;7.22;3.63;;;;;;;;;;5011689;28;20101;-65
2023/05/14 10:19:59;;;;;;;6.22;3.38;;;;;;;;;;5011930;28;20022;-66
2023/05/14 10:22:26;;;;;;;6.13;3.50;;;;;;;;;;5011188;28;20022;-67
2023/05/14 10:24:52;;;;;;;7.63;3.85;;;;;;;;;;5012319;28;20030;-65
2023/05/14 10:27:20;;;;;;;5.57;3.30;;;;;;;;;;5012012;28;20026;-66
2023/05/14 10:29:50;;;;;;;9.32;3.67;;;;;;;;;;5011813;28;20271;-66
2023/05/14 10:32:15;;;;;;;5.60;3.17;;;;;;;;;;5007640;28;20040;-65
2023/05/14 10:34:42;;;;;;;5.90;3.40;;;;;;;;;;5004019;28;20018;-67
2023/05/14 10:37:09;;;;;;;6.35;3.47;;;;;;;;;;5011857;28;20050;-66
2023/05/14 10:39:41;;;;;;;6.60;3.50;;;;;;;;;;5010155;28;20232;-66
2023/05/14 10:42:10;;;;;;;7.38;3.40;;;;;;;;;;5011102;28;20485;-66
2023/05/14 10:44:39;;;;;;;6.20;3.40;;;;;;;;;;5011627;28;20057;-64
2023/05/14 10:47:05;;;;;;;6.32;3.00;;;;;;;;;;5011659;28;20109;-65
2023/05/14 10:49:30;;;;;;;5.97;3.20;;;;;;;;;;5010328;28;20224;-65
2023/05/14 10:51:55;;;;;;;5.40;3.30;;;;;;;;;;5011360;28;20022;-65
2023/05/14 10:54:21;;;;;;;5.28;3.03;;;;;;;;;;5011842;28;20440;-65
2023/05/14 10:56:47;;;;;;;7.45;3.25;;;;;;;;;;5011426;28;20034;-66
2023/05/14 10:59:15;;;;;;;6.20;3.30;;;;;;;;;;5011389;28;20041;-66
2023/05/14 11:01:40;;;;;;;5.82;3.28;;;;;;;;;;5011115;28;20033;-64
2023/05/14 11:04:05;;;;;;;5.13;3.10;;;;;;;;;;5011291;28;20374;-66
2023/05/14 11:06:31;;;;;;;6.88;3.28;;;;;;;;;;5011304;28;20081;-65
2023/05/14 11:08:56;;;;;;;6.55;3.20;;;;;;;;;;5010996;28;20026;-65
2023/05/14 11:11:22;;;;;;;5.38;2.88;;;;;;;;;;5010705;28;20021;-66
2023/05/14 11:13:48;;;;;;;6.50;2.97;;;;;;;;;;5011252;28;20037;-65
2023/05/14 11:16:17;;;;;;;5.85;3.40;;;;;;;;;;5011190;28;20021;-66
2023/05/14 11:18:42;;;;;;;5.78;2.90;;;;;;;;;;5011030;28;20024;-65
2023/05/14 11:21:07;;;;;;;7.33;3.27;;;;;;;;;;5011166;28;20022;-66
2023/05/14 11:23:33;;;;;;;6.33;3.20;;;;;;;;;;5011237;28;20096;-66
2023/05/14 11:25:58;;;;;;;5.70;2.90;;;;;;;;;;5011008;28;20029;-66
2023/05/14 11:28:24;;;;;;;4.97;2.80;;;;;;;;;;5010953;28;20548;-66
2023/05/14 11:30:50;;;;;;;4.80;2.80;;;;;;;;;;5008827;28;20028;-67
2023/05/14 11:33:16;;;;;;;5.75;3.38;;;;;;;;;;5008260;28;20486;-67
2023/05/14 11:35:44;;;;;;;5.47;3.10;;;;;;;;;;5009932;28;20034;-66
2023/05/14 11:38:12;;;;;;;6.47;3.08;;;;;;;;;;5005562;28;20056;-64
2023/05/14 11:40:37;;;;;;;5.13;2.65;;;;;;;;;;5009638;28;20097;-65
2023/05/14 11:43:03;;;;;;;6.22;3.00;;;;;;;;;;5004786;28;20102;-66
2023/05/14 11:45:31;;;;;;;5.30;2.97;;;;;;;;;;5009999;28;20223;-64
2023/05/14 11:47:57;;;;;;;7.05;3.08;;;;;;;;;;5008998;28;20109;-66
2023/05/14 11:50:22;;;;;;;5.82;3.10;;;;;;;;;;5008873;28;20098;-66
2023/05/14 11:52:49;;;;;;;6.30;2.80;;;;;;;;;;5009829;28;20021;-65
2023/05/14 11:55:15;;;;;;;5.82;2.72;;;;;;;;;;5008268;28;20025;-63
2023/05/14 11:57:40;;;;;;;4.93;2.55;;;;;;;;;;5009949;28;20026;-66
2023/05/14 12:00:07;;;;;;;5.30;2.40;;;;;;;;;;5009493;28;20041;-66
2023/05/14 12:02:32;;;;;;;4.50;2.45;;;;;;;;;;5007294;28;20112;-65
2023/05/14 12:04:58;;;;;;;5.10;2.53;;;;;;;;;;5007281;28;20623;-63
2023/05/14 12:07:27;;;;;;;5.45;3.05;;;;;;;;;;5010951;28;20056;-66
2023/05/14 12:09:52;;;;;;;6.13;2.88;;;;;;;;;;5009729;28;20109;-66
2023/05/14 12:12:21;;;;;;;5.30;2.40;;;;;;;;;;5009180;28;20169;-65
2023/05/14 12:14:46;;;;;;;6.55;2.70;;;;;;;;;;5008468;28;20425;-66
2023/05/14 12:17:15;;;;;;;4.93;2.70;;;;;;;;;;5008852;28;20157;-65
2023/05/14 12:19:41;;;;;;;4.57;2.55;;;;;;;;;;5016009;28;20059;-65
2023/05/14 12:22:07;;;;;;;4.95;2.30;;;;;;;;;;5019930;28;20141;-66
2023/05/14 12:24:32;;;;;;;4.82;2.50;;;;;;;;;;5016285;28;20042;-65
2023/05/14 12:27:00;;;;;;;4.83;2.20;;;;;;;;;;5016443;28;20045;-66
2023/05/14 12:29:25;;;;;;;4.38;2.17;;;;;;;;;;5009651;28;20026;-66
2023/05/14 12:31:50;;;;;;;4.65;2.17;;;;;;;;;;5009055;28;20025;-64
2023/05/14 12:34:15;;;;;;;4.23;2.40;;;;;;;;;;5007873;28;20486;-66
2023/05/14 12:36:41;;;;;;;5.95;2.70;;;;;;;;;;5009390;28;20029;-66
2023/05/14 12:39:07;;;;;;;4.88;2.50;;;;;;;;;;5008768;28;20061;-66
2023/05/14 12:41:33;;;;;;;5.32;2.40;;;;;;;;;;5014847;28;20062;-66
2023/05/14 12:43:58;;;;;;;5.15;2.58;;;;;;;;;;5012807;28;20029;-65
2023/05/14 12:46:24;;;;;;;4.47;2.38;;;;;;;;;;5014303;28;20026;-66
2023/05/14 12:48:49;;;;;;;4.45;2.17;;;;;;;;;;5013490;28;20029;-66
2023/05/14 12:51:14;;;;;;;4.53;2.50;;;;;;;;;;5013344;28;20014;-66
2023/05/14 12:53:40;;;;;;;4.70;2.35;;;;;;;;;;5011571;28;20094;-66
2023/05/14 12:56:05;;;;;;;5.07;2.17;;;;;;;;;;5009459;28;20025;-66
2023/05/14 12:58:30;;;;;;;3.90;2.00;;;;;;;;;;5013143;28;20050;-66
2023/05/14 13:00:55;;;;;;;5.20;2.60;;;;;;;;;;5012059;28;20026;-67
2023/05/14 13:03:21;;;;;;;5.73;2.13;;;;;;;;;;5013436;28;20022;-66
2023/05/14 13:05:46;;;;;;;4.17;2.27;;;;;;;;;;5012252;28;20022;-66
2023/05/14 13:08:13;;;;;;;5.93;2.40;;;;;;;;;;5013462;28;20045;-65
2023/05/14 13:10:39;;;;;;;4.80;2.33;;;;;;;;;;5011937;28;20389;-64
2023/05/14 13:13:04;;;;;;;4.60;2.20;;;;;;;;;;5011210;28;20029;-66
2023/05/14 13:15:31;;;;;;;4.10;2.38;;;;;;;;;;5013116;28;20519;-66
2023/05/14 13:17:56;;;;;;;4.55;2.40;;;;;;;;;;5010945;28;20393;-66
2023/05/14 13:20:22;;;;;;;8.45;2.50;;;;;;;;;;5013294;28;20359;-66
2023/05/14 13:22:47;;;;;;;5.13;2.42;;;;;;;;;;5007788;28;20092;-65
2023/05/14 13:25:12;;;;;;;5.40;2.57;;;;;;;;;;5011081;28;20057;-65
2023/05/14 13:27:37;;;;;;;5.50;1.95;;;;;;;;;;5012527;28;20105;-63
2023/05/14 13:30:03;;;;;;;4.72;2.40;;;;;;;;;;5013334;28;20018;-65
2023/05/14 13:32:28;;;;;;;4.20;2.25;;;;;;;;;;5011371;28;20037;-65
2023/05/14 13:34:53;;;;;;;7.27;2.60;;;;;;;;;;5010879;28;20160;-65
2023/05/14 13:37:19;;;;;;;5.03;2.80;;;;;;;;;;5011016;28;20022;-65
2023/05/14 13:39:44;;;;;;;5.37;2.70;;;;;;;;;;5011232;28;20014;-66
2023/05/14 13:42:09;;;;;;;5.97;2.87;;;;;;;;;;5003508;28;20440;-65
2023/05/14 13:44:35;;;;;;;6.85;2.80;;;;;;;;;;5010869;28;20037;-67
2023/05/14 13:47:00;;;;;;;6.45;2.72;;;;;;;;;;5012733;28;20022;-67
2023/05/14 13:49:25;;;;;;;4.90;2.37;;;;;;;;;;5011519;28;20022;-65
2023/05/14 13:51:50;;;;;;;5.57;2.90;;;;;;;;;;5011201;28;20094;-66
2023/05/14 13:54:15;;;;;;;4.80;2.60;;;;;;;;;;5011460;28;20029;-64
2023/05/14 13:56:41;;;;;;;5.95;2.47;;;;;;;;;;5012204;28;20029;-65
2023/05/14 13:59:06;;;;;;;4.70;2.50;;;;;;;;;;5011527;28;20033;-65
2023/05/14 14:01:31;;;;;;;4.70;2.73;;;;;;;;;;5011869;28;20483;-65
2023/05/14 14:03:56;;;;;;;5.27;2.77;;;;;;;;;;5010641;28;20457;-65
2023/05/14 14:06:21;;;;;;;4.90;2.53;;;;;;;;;;5008974;28;20513;-65
2023/05/14 14:08:47;;;;;;;4.47;2.40;;;;;;;;;;5006076;28;20014;-65
2023/05/14 14:11:12;;;;;;;5.20;2.58;;;;;;;;;;5005063;28;20028;-65
2023/05/14 14:13:38;;;;;;;5.60;2.50;;;;;;;;;;5007049;28;20049;-65
2023/05/14 14:16:05;;;;;;;5.50;2.28;;;;;;;;;;5007168;28;20076;-65
2023/05/14 14:18:30;;;;;;;4.50;2.35;;;;;;;;;;5008408;28;20048;-64
2023/05/14 14:20:55;;;;;;;7.20;2.78;;;;;;;;;;5002357;28;20543;-64
2023/05/14 14:23:20;;;;;;;5.20;2.45;;;;;;;;;;5006497;28;20030;-64
2023/05/14 14:25:46;;;;;;;6.27;2.63;;;;;;;;;;5004212;28;20022;-66
2023/05/14 14:28:11;;;;;;;6.67;2.50;;;;;;;;;;5008977;28;20052;-65